Avawam, Kentucky
Current Conditions -  °F | °C
As of 11:26 AM on Friday 31 Oct 2014 (Local Time) from KJKL Reporting Station
Light Rain Light Rain  
Wind Chill: 42°   Ceiling: 2900
Heat Index: 42°   Visibility: 6mi
Dew Point: 39°   Wind: 0mph
Humidity: 89%   Direction: NA
Pressure: 29.97"   Gusts: NA
Location:  37.22°N, 83.27°W
Report Text: KJKL 311526Z AUTO 00000KT 6SM -RA BR FEW002 OVC029 06/04 A2997 RMK AO2 P0000 T00560039
Loading
Personal Weather Stations






























Interactive Weather Map
Tropical Storm Tracking
New forecast layout! Learn more

10-Day Weather Forecast

Advertisements
Track Severe Weather on mobile